Observation data for Hart on 02/15/2017      Previous  Date  Next       Current Mesonet Observations  Soil Data  Daily Summary Page  Observations in Plain Language
KHRS 150600Z 31008KT M00/M02 A3019 RMK A01 T10011020  RH  088%=      5-min Rain = 0
KHRS 150605Z 31008KT M00/M02 A3019 RMK A01 T10011021  RH  087%=      5-min Rain = 0
KHRS 150610Z 31008KT M00/M02 A3019 RMK A01 T10011021  RH  087%=      5-min Rain = 0
KHRS 150615Z 31008KT M00/M02 A3019 RMK A01 T10011022  RH  087%=      5-min Rain = 0
KHRS 150620Z 31008KT M00/M02 A3019 RMK A01 T10011022  RH  087%=      5-min Rain = 0
KHRS 150625Z 31008KT M00/M02 A3019 RMK A01 T10011022  RH  087%=      5-min Rain = 0
KHRS 150630Z 30008KT M00/M02 A3019 RMK A01 T10021023  RH  087%=      5-min Rain = 0
KHRS 150635Z 30008KT M00/M02 A302 RMK A01 T10031023  RH  087%=      5-min Rain = 0
KHRS 150640Z 30008KT M00/M02 A302 RMK A01 T10041023  RH  088%=      5-min Rain = 0
KHRS 150645Z 30007KT M00/M02 A302 RMK A01 T10041023  RH  088%=      5-min Rain = 0
KHRS 150650Z 30007KT M01/M02 A302 RMK A01 T10051023  RH  088%=      5-min Rain = 0
KHRS 150655Z 30007KT M01/M02 A302 RMK A01 T10051024  RH  089%=      5-min Rain = 0
KHRS 150700Z 30008KT M01/M02 A302 RMK A01 T10061023  RH  089%=      5-min Rain = 0
KHRS 150705Z 30008KT M01/M02 A302 RMK A01 T10061023  RH  089%=      5-min Rain = 0
KHRS 150710Z 30008KT M01/M02 A302 RMK A01 T10051023  RH  089%=      5-min Rain = 0
KHRS 150715Z 30008KT M01/M02 A302 RMK A01 T10051023  RH  088%=      5-min Rain = 0
KHRS 150720Z 31008KT M01/M02 A302 RMK A01 T10061024  RH  088%=      5-min Rain = 0
KHRS 150725Z 31008KT M01/M02 A302 RMK A01 T10061024  RH  089%=      5-min Rain = 0
KHRS 150730Z 31008KT M01/M02 A302 RMK A01 T10061024  RH  088%=      5-min Rain = 0
KHRS 150735Z 31008KT M01/M03 A302 RMK A01 T10061025  RH  088%=      5-min Rain = 0
KHRS 150740Z 31008KT M01/M03 A302 RMK A01 T10061025  RH  088%=      5-min Rain = 0
KHRS 150745Z 30009KT M01/M03 A302 RMK A01 T10061025  RH  088%=      5-min Rain = 0
KHRS 150750Z 31008KT M01/M03 A302 RMK A01 T10061025  RH  088%=      5-min Rain = 0
KHRS 150755Z 31008KT M01/M03 A302 RMK A01 T10051025  RH  087%=      5-min Rain = 0
KHRS 150800Z 30009KT M01/M03 A3021 RMK A01 T10051025  RH  087%=      5-min Rain = 0
KHRS 150805Z 30009KT M01/M03 A3021 RMK A01 T10051026  RH  087%=      5-min Rain = 0
KHRS 150810Z 30008KT M01/M03 A3021 RMK A01 T10051026  RH  087%=      5-min Rain = 0
KHRS 150815Z 30008KT M01/M03 A3021 RMK A01 T10051026  RH  087%=      5-min Rain = 0
KHRS 150820Z 30008KT M01/M03 A3021 RMK A01 T10061026  RH  087%=      5-min Rain = 0
KHRS 150825Z 31009KT M01/M03 A3021 RMK A01 T10061026  RH  088%=      5-min Rain = 0
KHRS 150830Z 31009KT M00/M03 A3021 RMK A01 T10041025  RH  087%=      5-min Rain = 0
KHRS 150835Z 31009KT M00/M03 A3021 RMK A01 T10041025  RH  087%=      5-min Rain = 0
KHRS 150840Z 31009KT M00/M03 A3021 RMK A01 T10031025  RH  086%=      5-min Rain = 0
KHRS 150845Z 31009KT M00/M03 A3021 RMK A01 T10031025  RH  086%=      5-min Rain = 0
KHRS 150850Z 31009KT M00/M03 A3021 RMK A01 T10031025  RH  086%=      5-min Rain = 0
KHRS 150855Z 31009KT M00/M03 A3021 RMK A01 T10031025  RH  086%=      5-min Rain = 0
KHRS 150900Z 31010KT M00/M03 A302 RMK A01 T10031025  RH  086%=      5-min Rain = 0
KHRS 150905Z 31011KT M00/M03 A302 RMK A01 T10021025  RH  085%=      5-min Rain = 0
KHRS 150910Z 31011KT 00/03 A302 RMK A01 T00-00-25  RH  084%=      5-min Rain = 0
KHRS 150915Z 31011KT 00/03 A302 RMK A01 T00-00-26  RH  084%=      5-min Rain = 0
KHRS 150920Z 32011KT 00/03 A302 RMK A01 T00-00-26  RH  084%=      5-min Rain = 0
KHRS 150925Z 32012KT 00/03 A302 RMK A01 T00-00-27  RH  083%=      5-min Rain = 0
KHRS 150930Z 32012KT 00/03 A302 RMK A01 T00000-28  RH  083%=      5-min Rain = 0
KHRS 150935Z 32012KT 00/03 A302 RMK A01 T00-00-28  RH  082%=      5-min Rain = 0
KHRS 150940Z 32012KT M00/M03 A302 RMK A01 T10011028  RH  083%=      5-min Rain = 0
KHRS 150945Z 32012KT M00/M03 A302 RMK A01 T10011028  RH  083%=      5-min Rain = 0
KHRS 150950Z 32012KT M00/M03 A302 RMK A01 T10011028  RH  083%=      5-min Rain = 0
KHRS 150955Z 32012KT M00/M03 A302 RMK A01 T10011029  RH  083%=      5-min Rain = 0
KHRS 151000Z 32012KT M00/M03 A3019 RMK A01 T10021029  RH  083%=      5-min Rain = 0
KHRS 151005Z 33012KT M00/M03 A302 RMK A01 T10021030  RH  082%=      5-min Rain = 0
KHRS 151010Z 33012KT M00/M03 A302 RMK A01 T10031030  RH  083%=      5-min Rain = 0
KHRS 151015Z 33012KT M00/M03 A302 RMK A01 T10031031  RH  082%=      5-min Rain = 0
KHRS 151020Z 33012KT M00/M03 A302 RMK A01 T10041032  RH  082%=      5-min Rain = 0
KHRS 151025Z 33012KT M01/M03 A302 RMK A01 T10051032  RH  082%=      5-min Rain = 0
KHRS 151030Z 33012KT M01/M03 A302 RMK A01 T10051032  RH  083%=      5-min Rain = 0
KHRS 151035Z 33011KT M01/M03 A302 RMK A01 T10061032  RH  083%=      5-min Rain = 0
KHRS 151040Z 33011KT M01/M03 A302 RMK A01 T10061033  RH  083%=      5-min Rain = 0
KHRS 151045Z 33011KT M01/M03 A302 RMK A01 T10071033  RH  083%=      5-min Rain = 0
KHRS 151050Z 33012KT M01/M03 A302 RMK A01 T10071033  RH  083%=      5-min Rain = 0
KHRS 151055Z 33012KT M01/M03 A302 RMK A01 T10081034  RH  083%=      5-min Rain = 0
KHRS 151100Z 33012KT M01/M03 A302 RMK A01 T10081034  RH  083%=      5-min Rain = 0
KHRS 151105Z 33012KT M01/M03 A302 RMK A01 T10091034  RH  084%=      5-min Rain = 0
KHRS 151110Z 33012KT M01/M04 A302 RMK A01 T10091035  RH  084%=      5-min Rain = 0
KHRS 151115Z 33011KT M01/M04 A302 RMK A01 T10091035  RH  084%=      5-min Rain = 0
KHRS 151120Z 33012KT M01/M04 A302 RMK A01 T10101035  RH  084%=      5-min Rain = 0
KHRS 151125Z 33011KT M01/M04 A302 RMK A01 T10101035  RH  084%=      5-min Rain = 0
KHRS 151130Z 32011KT M01/M04 A302 RMK A01 T10111035  RH  084%=      5-min Rain = 0
KHRS 151135Z 32011KT M01/M04 A302 RMK A01 T10101035  RH  084%=      5-min Rain = 0
KHRS 151140Z 32011KT M01/M04 A302 RMK A01 T10101035  RH  084%=      5-min Rain = 0
KHRS 151145Z 32011KT M01/M04 A302 RMK A01 T10111035  RH  084%=      5-min Rain = 0
KHRS 151150Z 32011KT M01/M04 A302 RMK A01 T10111035  RH  084%=      5-min Rain = 0
KHRS 151155Z 33011KT M01/M04 A302 RMK A01 T10111036  RH  085%=      5-min Rain = 0
KHRS 151200Z 32012KT M01/M04 A302 RMK A01 T10121036  RH  085%=      5-min Rain = 0
KHRS 151205Z 32011KT M01/M04 A302 RMK A01 T10121036  RH  085%=      5-min Rain = 0
KHRS 151210Z 33012KT M01/M04 A302 RMK A01 T10121036  RH  085%=      5-min Rain = 0
KHRS 151215Z 33011KT M01/M04 A302 RMK A01 T10141037  RH  085%=      5-min Rain = 0
KHRS 151220Z 33012KT M01/M04 A302 RMK A01 T10141037  RH  086%=      5-min Rain = 0
KHRS 151225Z 33012KT M02/M04 A302 RMK A01 T10151037  RH  086%=      5-min Rain = 0
KHRS 151230Z 33012KT M02/M04 A302 RMK A01 T10151037  RH  086%=      5-min Rain = 0
KHRS 151235Z 33012KT M02/M04 A3021 RMK A01 T10151038  RH  086%=      5-min Rain = 0
KHRS 151240Z 33012KT M02/M04 A3021 RMK A01 T10161038  RH  086%=      5-min Rain = 0
KHRS 151245Z 33011KT M02/M04 A3021 RMK A01 T10161039  RH  086%=      5-min Rain = 0
KHRS 151250Z 32010KT M02/M04 A3021 RMK A01 T10171039  RH  086%=      5-min Rain = 0
KHRS 151255Z 32010KT M02/M04 A3021 RMK A01 T10171039  RH  086%=      5-min Rain = 0
KHRS 151300Z 32010KT M02/M04 A3021 RMK A01 T10181039  RH  086%=      5-min Rain = 0
KHRS 151305Z 32010KT M02/M04 A3021 RMK A01 T10181039  RH  086%=      5-min Rain = 0
KHRS 151310Z 32010KT M02/M04 A3021 RMK A01 T10181040  RH  086%=      5-min Rain = 0
KHRS 151315Z 32010KT M02/M04 A3022 RMK A01 T10181040  RH  086%=      5-min Rain = 0
KHRS 151320Z 32010KT M02/M04 A3022 RMK A01 T10191040  RH  086%=      5-min Rain = 0
KHRS 151325Z 33010KT M02/M04 A3022 RMK A01 T10201041  RH  086%=      5-min Rain = 0
KHRS 151330Z 33010KT M02/M04 A3022 RMK A01 T10201041  RH  087%=      5-min Rain = 0
KHRS 151335Z 32009KT M02/M04 A3023 RMK A01 T10211041  RH  087%=      5-min Rain = 0
KHRS 151340Z 32009KT M02/M04 A3023 RMK A01 T10211041  RH  087%=      5-min Rain = 0
KHRS 151345Z 32009KT M02/M04 A3023 RMK A01 T10211041  RH  087%=      5-min Rain = 0
KHRS 151350Z 32009KT M02/M04 A3023 RMK A01 T10211041  RH  087%=      5-min Rain = 0
KHRS 151355Z 32009KT M02/M04 A3023 RMK A01 T10211041  RH  087%=      5-min Rain = 0
KHRS 151400Z 32009KT M02/M04 A3024 RMK A01 T10201040  RH  087%=      5-min Rain = 0
KHRS 151405Z 32009KT M02/M04 A3024 RMK A01 T10181039  RH  087%=      5-min Rain = 0
KHRS 151410Z 32009KT M02/M04 A3024 RMK A01 T10171038  RH  086%=      5-min Rain = 0
KHRS 151415Z 32009KT M02/M04 A3024 RMK A01 T10151037  RH  086%=      5-min Rain = 0
KHRS 151420Z 32009KT M01/M04 A3024 RMK A01 T10141036  RH  086%=      5-min Rain = 0
KHRS 151425Z 33009KT M01/M04 A3024 RMK A01 T10121036  RH  085%=      5-min Rain = 0
KHRS 151430Z 33009KT M01/M03 A3025 RMK A01 T10101034  RH  084%=      5-min Rain = 0
KHRS 151435Z 32008KT M01/M03 A3025 RMK A01 T10071032  RH  084%=      5-min Rain = 0
KHRS 151440Z 32009KT M01/M03 A3025 RMK A01 T10051031  RH  083%=      5-min Rain = 0
KHRS 151445Z 33009KT M00/M03 A3025 RMK A01 T10031031  RH  082%=      5-min Rain = 0
KHRS 151450Z 32009KT 00/03 A3026 RMK A01 T00-00-30  RH  081%=      5-min Rain = 0
KHRS 151455Z 32008KT 00/M03 A3026 RMK A01 T00021028  RH  081%=      5-min Rain = 0
KHRS 151500Z 32009KT 00/M03 A3026 RMK A01 T00041027  RH  081%=      5-min Rain = 0
KHRS 151505Z 32009KT 01/M03 A3026 RMK A01 T00071027  RH  079%=      5-min Rain = 0
KHRS 151510Z 32008KT 01/M02 A3026 RMK A01 T00101024  RH  079%=      5-min Rain = 0
KHRS 151515Z 32009KT 01/M02 A3026 RMK A01 T00121023  RH  078%=      5-min Rain = 0
KHRS 151520Z 32008KT 02/M02 A3027 RMK A01 T00151022  RH  078%=      5-min Rain = 0
KHRS 151525Z 32008KT 02/M02 A3027 RMK A01 T00161021  RH  077%=      5-min Rain = 0
KHRS 151530Z 32008KT 02/M02 A3027 RMK A01 T00181018  RH  077%=      5-min Rain = 0
KHRS 151535Z 32007KT 02/M02 A3027 RMK A01 T00211017  RH  077%=      5-min Rain = 0
KHRS 151540Z 32007KT 02/M02 A3027 RMK A01 T00231016  RH  076%=      5-min Rain = 0
KHRS 151545Z 33007KT 03/M02 A3027 RMK A01 T00251016  RH  075%=      5-min Rain = 0
KHRS 151550Z 32007KT 03/M02 A3027 RMK A01 T00271015  RH  075%=      5-min Rain = 0
KHRS 151555Z 33006KT 03/M01 A3027 RMK A01 T00301012  RH  075%=      5-min Rain = 0
KHRS 151600Z 33007KT 03/M01 A3027 RMK A01 T00311014  RH  073%=      5-min Rain = 0
KHRS 151605Z 33007KT 03/M01 A3027 RMK A01 T00331012  RH  074%=      5-min Rain = 0
KHRS 151610Z 33006KT 04/M01 A3027 RMK A01 T00361009  RH  073%=      5-min Rain = 0
KHRS 151615Z 32006KT 04/M01 A3027 RMK A01 T00381008  RH  073%=      5-min Rain = 0
KHRS 151620Z 32006KT 04/M01 A3027 RMK A01 T00401007  RH  072%=      5-min Rain = 0
KHRS 151625Z 31007KT 04/M01 A3027 RMK A01 T00411008  RH  071%=      5-min Rain = 0
KHRS 151630Z 32006KT 04/M01 A3027 RMK A01 T00441007  RH  070%=      5-min Rain = 0
KHRS 151635Z 31005KT 05/M01 A3027 RMK A01 T00461005  RH  070%=      5-min Rain = 0
KHRS 151640Z 31005KT 05/M00 A3027 RMK A01 T00481004  RH  070%=      5-min Rain = 0
KHRS 151645Z 32005KT 05/M01 A3027 RMK A01 T00501005  RH  068%=      5-min Rain = 0
KHRS 151650Z 32005KT 05/M01 A3027 RMK A01 T00521005  RH  067%=      5-min Rain = 0
KHRS 151655Z 31005KT 06/M00 A3027 RMK A01 T00561001  RH  067%=      5-min Rain = 0
KHRS 151700Z 30006KT 06/M00 A3027 RMK A01 T00581003  RH  066%=      5-min Rain = 0
KHRS 151705Z 31005KT 06/M00 A3027 RMK A01 T00591001  RH  066%=      5-min Rain = 0
KHRS 151710Z 31006KT 06/00 A3027 RMK A01 T00630002  RH  066%=      5-min Rain = 0
KHRS 151715Z 32007KT 06/00 A3026 RMK A01 T00640000  RH  064%=      5-min Rain = 0
KHRS 151720Z 31006KT 07/01 A3026 RMK A01 T00660007  RH  067%=      5-min Rain = 0
KHRS 151725Z 31006KT 07/00 A3026 RMK A01 T00680004  RH  064%=      5-min Rain = 0
KHRS 151730Z 30007KT 07/00 A3026 RMK A01 T00690001  RH  062%=      5-min Rain = 0
KHRS 151735Z 31007KT 07/M00 A3026 RMK A01 T00701001  RH  061%=      5-min Rain = 0
KHRS 151740Z 30007KT 07/M00 A3026 RMK A01 T00721004  RH  059%=      5-min Rain = 0
KHRS 151745Z 30007KT 08/00 A3026 RMK A01 T00770001  RH  059%=      5-min Rain = 0
KHRS 151750Z 30007KT 08/M01 A3026 RMK A01 T00771010  RH  055%=      5-min Rain = 0
KHRS 151755Z 32006KT 08/M01 A3025 RMK A01 T00771007  RH  056%=      5-min Rain = 0
KHRS 151800Z 33007KT 08/M00 A3025 RMK A01 T00811003  RH  056%=      5-min Rain = 0
KHRS 151805Z 32006KT 08/M01 A3025 RMK A01 T00821009  RH  053%=      5-min Rain = 0
KHRS 151810Z 31007KT 08/M01 A3025 RMK A01 T00821012  RH  052%=      5-min Rain = 0
KHRS 151815Z 30007KT 08/M02 A3025 RMK A01 T00831018  RH  050%=      5-min Rain = 0
KHRS 151820Z 30008KT 09/M01 A3024 RMK A01 T00881014  RH  049%=      5-min Rain = 0
KHRS 151825Z 31007KT 09/M02 A3024 RMK A01 T00891016  RH  049%=      5-min Rain = 0
KHRS 151830Z 30008KT 09/M02 A3024 RMK A01 T00901018  RH  047%=      5-min Rain = 0
KHRS 151835Z 30007KT 09/M02 A3024 RMK A01 T00891018  RH  048%=      5-min Rain = 0
KHRS 151840Z 31008G13KT 09/M02 A3023 RMK A01 T00931016  RH  047%=      5-min Rain = 0
KHRS 151845Z 30008KT 09/M03 A3023 RMK A01 T00921025  RH  044%=      5-min Rain = 0
KHRS 151850Z 31008KT 09/M03 A3023 RMK A01 T00931025  RH  044%=      5-min Rain = 0
KHRS 151855Z 31008KT 09/M02 A3022 RMK A01 T00941022  RH  045%=      5-min Rain = 0
KHRS 151900Z 31007G12KT 10/M02 A3022 RMK A01 T00961020  RH  045%=      5-min Rain = 0
KHRS 151905Z 31007KT 10/M02 A3022 RMK A01 T00971024  RH  043%=      5-min Rain = 0
KHRS 151910Z 30007G12KT 10/M03 A3022 RMK A01 T00981027  RH  042%=      5-min Rain = 0
KHRS 151915Z 30008KT 10/M03 A3021 RMK A01 T01001026  RH  042%=      5-min Rain = 0
KHRS 151920Z 30009KT 10/M03 A3021 RMK A01 T01001026  RH  042%=      5-min Rain = 0
KHRS 151925Z 29008KT 10/M03 A3021 RMK A01 T00991029  RH  041%=      5-min Rain = 0
KHRS 151930Z 29007KT 10/M03 A302 RMK A01 T00991028  RH  041%=      5-min Rain = 0
KHRS 151935Z 29007KT 10/M04 A302 RMK A01 T01001035  RH  039%=      5-min Rain = 0
KHRS 151940Z 33006KT 10/M04 A302 RMK A01 T01021041  RH  037%=      5-min Rain = 0
KHRS 151945Z 31006G11KT 10/M04 A302 RMK A01 T01021037  RH  038%=      5-min Rain = 0
KHRS 151950Z 32005KT 10/M04 A3019 RMK A01 T01041035  RH  038%=      5-min Rain = 0
KHRS 151955Z 32008KT 10/M03 A3019 RMK A01 T01041029  RH  040%=      5-min Rain = 0
KHRS 152000Z 31005KT 11/M04 A3019 RMK A01 T01051036  RH  037%=      5-min Rain = 0
KHRS 152005Z 31008KT 11/M03 A3019 RMK A01 T01051032  RH  038%=      5-min Rain = 0
KHRS 152010Z 30005G11KT 11/M04 A3019 RMK A01 T01051035  RH  038%=      5-min Rain = 0
KHRS 152015Z 29008KT 11/M03 A3019 RMK A01 T01061031  RH  038%=      5-min Rain = 0
KHRS 152020Z 29005KT 11/M03 A3019 RMK A01 T01061029  RH  039%=      5-min Rain = 0
KHRS 152025Z 31006KT 11/M03 A3018 RMK A01 T01101030  RH  038%=      5-min Rain = 0
KHRS 152030Z 32004G9KT 11/M04 A3018 RMK A01 T01091039  RH  036%=      5-min Rain = 0
KHRS 152035Z 32006KT 11/M03 A3018 RMK A01 T01081033  RH  037%=      5-min Rain = 0
KHRS 152040Z 27005KT 11/M03 A3018 RMK A01 T01111028  RH  038%=      5-min Rain = 0
KHRS 152045Z 30007KT 11/M03 A3017 RMK A01 T01111028  RH  038%=      5-min Rain = 0
KHRS 152050Z 32007KT 11/M03 A3017 RMK A01 T01111032  RH  037%=      5-min Rain = 0
KHRS 152055Z 33006KT 11/M04 A3017 RMK A01 T01101038  RH  036%=      5-min Rain = 0
KHRS 152100Z 32005KT 11/M03 A3016 RMK A01 T01101028  RH  039%=      5-min Rain = 0
KHRS 152105Z 29005KT 11/M04 A3016 RMK A01 T01121036  RH  036%=      5-min Rain = 0
KHRS 152110Z 29007KT 11/M03 A3016 RMK A01 T01121032  RH  037%=      5-min Rain = 0
KHRS 152115Z 29005KT 11/M03 A3016 RMK A01 T01121030  RH  037%=      5-min Rain = 0
KHRS 152120Z 29005KT 12/M03 A3016 RMK A01 T01151029  RH  037%=      5-min Rain = 0
KHRS 152125Z 29007KT 12/M03 A3016 RMK A01 T01171025  RH  037%=      5-min Rain = 0
KHRS 152130Z 31009KT 12/M03 A3016 RMK A01 T01171027  RH  037%=      5-min Rain = 0
KHRS 152135Z 32007KT 12/M04 A3015 RMK A01 T01151035  RH  035%=      5-min Rain = 0
KHRS 152140Z 31003KT 12/M04 A3015 RMK A01 T01151036  RH  035%=      5-min Rain = 0
KHRS 152145Z 28005KT 12/M03 A3015 RMK A01 T01161029  RH  036%=      5-min Rain = 0
KHRS 152150Z 29007KT 12/M03 A3015 RMK A01 T01181028  RH  036%=      5-min Rain = 0
KHRS 152155Z 30004KT 12/M04 A3015 RMK A01 T01151035  RH  035%=      5-min Rain = 0
KHRS 152200Z 30003KT 12/M03 A3015 RMK A01 T01151033  RH  036%=      5-min Rain = 0
KHRS 152205Z 30006KT 12/M03 A3014 RMK A01 T01181033  RH  035%=      5-min Rain = 0
KHRS 152210Z 30005KT 12/M04 A3014 RMK A01 T01171040  RH  034%=      5-min Rain = 0
KHRS 152215Z 32004KT 12/M04 A3014 RMK A01 T01161042  RH  033%=      5-min Rain = 0
KHRS 152220Z 31006KT 12/M03 A3014 RMK A01 T01181030  RH  036%=      5-min Rain = 0
KHRS 152225Z 29005KT 12/M03 A3013 RMK A01 T01181027  RH  037%=      5-min Rain = 0
KHRS 152230Z 30004KT 12/M03 A3013 RMK A01 T01171033  RH  035%=      5-min Rain = 0
KHRS 152235Z 31004KT 12/M03 A3013 RMK A01 T01181031  RH  036%=      5-min Rain = 0
KHRS 152240Z 26003KT 12/M04 A3013 RMK A01 T01191037  RH  034%=      5-min Rain = 0
KHRS 152245Z 29003KT 12/M04 A3013 RMK A01 T01201036  RH  034%=      5-min Rain = 0
KHRS 152250Z 30004KT 12/M04 A3013 RMK A01 T01191037  RH  034%=      5-min Rain = 0
KHRS 152255Z 29003KT 12/M04 A3013 RMK A01 T01181038  RH  034%=      5-min Rain = 0
KHRS 152300Z 27003KT 12/M04 A3013 RMK A01 T01191036  RH  034%=      5-min Rain = 0
KHRS 152305Z 24006KT 12/M03 A3012 RMK A01 T01191025  RH  037%=      5-min Rain = 0
KHRS 152310Z 24005KT 12/M03 A3012 RMK A01 T01181028  RH  036%=      5-min Rain = 0
KHRS 152315Z 27004KT 12/M03 A3012 RMK A01 T01181028  RH  036%=      5-min Rain = 0
KHRS 152320Z 20003KT 12/M03 A3012 RMK A01 T01181027  RH  036%=      5-min Rain = 0
KHRS 152325Z 21002KT 12/M03 A3012 RMK A01 T01181029  RH  036%=      5-min Rain = 0
KHRS 152330Z 21005KT 12/M03 A3012 RMK A01 T01191025  RH  037%=      5-min Rain = 0
KHRS 152335Z 21005KT 12/M03 A3012 RMK A01 T01161027  RH  037%=      5-min Rain = 0
KHRS 152340Z 22004KT 12/M03 A3012 RMK A01 T01151026  RH  038%=      5-min Rain = 0
KHRS 152345Z 23002KT 12/M03 A3012 RMK A01 T01161028  RH  037%=      5-min Rain = 0
KHRS 152350Z 22002KT 12/M02 A3012 RMK A01 T01161022  RH  038%=      5-min Rain = 0
KHRS 152355Z 21004KT 12/M02 A3012 RMK A01 T01151020  RH  039%=      5-min Rain = 0
KHRS 160000Z 21003KT 11/M02 A3012 RMK A01 T01121022  RH  040%=      5-min Rain = 0
KHRS 160005Z 20003KT 11/M01 A3012 RMK A01 T01111014  RH  042%=      5-min Rain = 0
KHRS 160010Z 18003KT 11/M01 A3012 RMK A01 T01091013  RH  043%=      5-min Rain = 0
KHRS 160015Z 18004KT 11/M01 A3012 RMK A01 T01061012  RH  044%=      5-min Rain = 0
KHRS 160020Z 19005KT 10/M00 A3012 RMK A01 T01011004  RH  049%=      5-min Rain = 0
KHRS 160025Z 19005KT 10/00 A3012 RMK A01 T00970001  RH  052%=      5-min Rain = 0
KHRS 160030Z 19005KT 09/01 A3012 RMK A01 T00900006  RH  056%=      5-min Rain = 0
KHRS 160035Z 19005KT 08/01 A3012 RMK A01 T00840007  RH  059%=      5-min Rain = 0
KHRS 160040Z 19005KT 08/00 A3012 RMK A01 T00810001  RH  057%=      5-min Rain = 0
KHRS 160045Z 19004KT 08/M00 A3012 RMK A01 T00811002  RH  057%=      5-min Rain = 0
KHRS 160050Z 18004KT 08/00 A3012 RMK A01 T007900-0  RH  058%=      5-min Rain = 0
KHRS 160055Z 18004KT 08/00 A3012 RMK A01 T00790001  RH  059%=      5-min Rain = 0
KHRS 160100Z 18004KT 08/00 A3011 RMK A01 T00770002  RH  060%=      5-min Rain = 0
KHRS 160105Z 18004KT 08/M00 A3011 RMK A01 T00771001  RH  058%=      5-min Rain = 0
KHRS 160110Z 18005KT 08/M00 A3012 RMK A01 T00761001  RH  059%=      5-min Rain = 0
KHRS 160115Z 17005KT 07/M00 A3012 RMK A01 T00731001  RH  060%=      5-min Rain = 0
KHRS 160120Z 17005KT 07/M01 A3011 RMK A01 T00721005  RH  059%=      5-min Rain = 0
KHRS 160125Z 17005KT 07/M01 A3011 RMK A01 T00711006  RH  059%=      5-min Rain = 0
KHRS 160130Z 17005KT 07/M01 A3011 RMK A01 T00691006  RH  059%=      5-min Rain = 0
KHRS 160135Z 17006KT 07/M01 A3011 RMK A01 T00681006  RH  060%=      5-min Rain = 0
KHRS 160140Z 17005KT 07/M01 A3011 RMK A01 T00671008  RH  059%=      5-min Rain = 0
KHRS 160145Z 17005KT 07/M01 A3011 RMK A01 T00661009  RH  059%=      5-min Rain = 0
KHRS 160150Z 17006KT 07/M01 A3011 RMK A01 T00661010  RH  059%=      5-min Rain = 0
KHRS 160155Z 17006KT 07/M01 A3011 RMK A01 T00651010  RH  059%=      5-min Rain = 0
KHRS 160200Z 17006KT 06/M01 A3011 RMK A01 T00641010  RH  060%=      5-min Rain = 0
KHRS 160205Z 17006KT 06/M01 A3011 RMK A01 T00621009  RH  061%=      5-min Rain = 0
KHRS 160210Z 16006KT 06/M01 A3011 RMK A01 T00601010  RH  061%=      5-min Rain = 0
KHRS 160215Z 16006KT 06/M01 A3011 RMK A01 T00591010  RH  062%=      5-min Rain = 0
KHRS 160220Z 16006KT 06/M01 A3011 RMK A01 T00581010  RH  062%=      5-min Rain = 0
KHRS 160225Z 16006KT 06/M01 A3011 RMK A01 T00571011  RH  062%=      5-min Rain = 0
KHRS 160230Z 17006KT 06/M01 A3011 RMK A01 T00551011  RH  063%=      5-min Rain = 0
KHRS 160235Z 17006KT 05/M01 A3012 RMK A01 T00511010  RH  066%=      5-min Rain = 0
KHRS 160240Z 17006KT 05/M01 A3012 RMK A01 T00491009  RH  066%=      5-min Rain = 0
KHRS 160245Z 17006KT 05/M01 A3012 RMK A01 T00491012  RH  065%=      5-min Rain = 0
KHRS 160250Z 17006KT 05/M01 A3012 RMK A01 T00501014  RH  064%=      5-min Rain = 0
KHRS 160255Z 18006KT 05/M01 A3012 RMK A01 T00491014  RH  064%=      5-min Rain = 0
KHRS 160300Z 18006KT 05/M02 A3012 RMK A01 T00481015  RH  064%=      5-min Rain = 0
KHRS 160305Z 18005KT 05/M02 A3012 RMK A01 T00481015  RH  065%=      5-min Rain = 0
KHRS 160310Z 18004KT 05/M01 A3012 RMK A01 T00461014  RH  066%=      5-min Rain = 0
KHRS 160315Z 18005KT 05/M01 A3012 RMK A01 T00451014  RH  067%=      5-min Rain = 0
KHRS 160320Z 17005KT 04/M01 A3012 RMK A01 T00441014  RH  067%=      5-min Rain = 0
KHRS 160325Z 17005KT 04/M02 A3012 RMK A01 T00421015  RH  067%=      5-min Rain = 0
KHRS 160330Z 18005KT 04/M02 A3013 RMK A01 T00391015  RH  069%=      5-min Rain = 0
KHRS 160335Z 18005KT 04/M02 A3013 RMK A01 T00381015  RH  069%=      5-min Rain = 0
KHRS 160340Z 18005KT 04/M02 A3013 RMK A01 T00371015  RH  069%=      5-min Rain = 0
KHRS 160345Z 18005KT 04/M02 A3013 RMK A01 T00361016  RH  069%=      5-min Rain = 0
KHRS 160350Z 18005KT 04/M02 A3013 RMK A01 T00361017  RH  069%=      5-min Rain = 0
KHRS 160355Z 18005KT 04/M02 A3013 RMK A01 T00351017  RH  069%=      5-min Rain = 0
KHRS 160400Z 19005KT 03/M02 A3013 RMK A01 T00331017  RH  070%=      5-min Rain = 0
KHRS 160405Z 19005KT 03/M02 A3012 RMK A01 T00311015  RH  073%=      5-min Rain = 0
KHRS 160410Z 19005KT 03/M02 A3012 RMK A01 T00281016  RH  073%=      5-min Rain = 0
KHRS 160415Z 19005KT 03/M02 A3012 RMK A01 T00261016  RH  075%=      5-min Rain = 0
KHRS 160420Z 19004KT 03/M01 A3012 RMK A01 T00261014  RH  076%=      5-min Rain = 0
KHRS 160425Z 20004KT 03/M01 A3012 RMK A01 T00261013  RH  077%=      5-min Rain = 0
KHRS 160430Z 21004KT 02/M01 A3012 RMK A01 T00241014  RH  077%=      5-min Rain = 0
KHRS 160435Z 22004KT 02/M02 A3012 RMK A01 T00181016  RH  079%=      5-min Rain = 0
KHRS 160440Z 22004KT 02/M02 A3012 RMK A01 T00151016  RH  081%=      5-min Rain = 0
KHRS 160445Z 23004KT 01/M02 A3012 RMK A01 T00121018  RH  082%=      5-min Rain = 0
KHRS 160450Z 23005KT 01/M02 A3012 RMK A01 T00081018  RH  084%=      5-min Rain = 0
KHRS 160455Z 23005KT 01/M02 A3012 RMK A01 T00061019  RH  085%=      5-min Rain = 0
KHRS 160500Z 23005KT 01/M02 A3012 RMK A01 T00081017  RH  084%=      5-min Rain = 0
KHRS 160505Z 22006KT 01/M02 A3012 RMK A01 T00121018  RH  081%=      5-min Rain = 0
KHRS 160510Z 22006KT 01/M02 A3012 RMK A01 T00141019  RH  080%=      5-min Rain = 0
KHRS 160515Z 22005KT 01/M02 A3011 RMK A01 T00131020  RH  080%=      5-min Rain = 0
KHRS 160520Z 22005KT 01/M02 A3011 RMK A01 T00121020  RH  080%=      5-min Rain = 0
KHRS 160525Z 22005KT 01/M02 A3011 RMK A01 T00111020  RH  081%=      5-min Rain = 0
KHRS 160530Z 21006KT 01/M02 A3011 RMK A01 T00131020  RH  080%=      5-min Rain = 0
KHRS 160535Z 21007KT 01/M02 A3011 RMK A01 T00111021  RH  080%=      5-min Rain = 0
KHRS 160540Z 21007KT 01/M02 A3011 RMK A01 T00081020  RH  082%=      5-min Rain = 0
KHRS 160545Z 20007KT 01/M02 A3011 RMK A01 T00081020  RH  082%=      5-min Rain = 0
KHRS 160550Z 21007KT 01/M02 A301 RMK A01 T00051022  RH  083%=      5-min Rain = 0
KHRS 160555Z 21007KT 01/M02 A301 RMK A01 T00061021  RH  083%=      5-min Rain = 0

Page generated in 0.0087 seconds.